Terminal Aerodrome Forecast
Issued by NWS

Home | Current Version | Previous Version | Text Only | Print | Product List | Glossary On
Versions: 1 2 3 4 5 6 7 8 9 10 11 12 13 14 15 16 17 18 19 20 21 22 23 24 25 26 27
230
FTUS41 KCAR 140432 AAA
TAFBHB
TAF AMD
KBHB 140432Z 1405/1424 33012G22KT 2SM -SN BR SCT015 OVC025
      TEMPO 1405/1408 1SM -SN BR OVC015
     FM140800 36015G25KT P6SM OVC035
     FM141500 33012G22KT P6SM BKN040
     FM141800 31012G22KT P6SM SCT050
      AMD LTD TO CLD VIS AND WIND=

USA.gov is the U.S. government's official web portal to all federal, state and local government web resources and services.